Allen, Alabama
Current Conditions -  °F | °C
As of 2:53 PM on Friday 28 Nov 2014 (Local Time) from KGZH Reporting Station
Clear Clear  
Wind Chill: 59°   Ceiling: Unl
Heat Index: 59°   Visibility: 10mi
Dew Point: 24°   Wind: 3mph
Humidity: 26%   Direction: NA
Pressure: 30.31"   Gusts: NA
Location:  31.6°N, 87.71°W
Report Text: KGZH 282053Z AUTO VRB03KT 10SM CLR 15/M04 A3031 RMK AO2 SLP265 T01501044 56023
Loading
Personal Weather Stations






























Interactive Weather Map New forecast layout! Learn more

10-Day Weather Forecast

Advertisements
Track Severe Weather on mobile